ADDS METAR Data INFO
IDs: Format: Raw Decoded Include TAF

Data at: 1843 UTC 17 Oct 2017

KTTN 171753Z 29005KT 10SM CLR 14/02 A3029 RMK AO2 SLP253 T01440017 10144 20044 58020
KTTN 171653Z VRB04KT 10SM CLR 12/01 A3031 RMK AO2 SLP259 T01220011
KTTN 171553Z 30006KT 10SM CLR 12/01 A3034 RMK AO2 SLP268 T01170011
KTTN 171453Z 04005KT 10SM CLR 10/01 A3035 RMK AO2 SLP273 T01000011 50007
KTTN 171353Z VRB04KT 10SM CLR 09/02 A3036 RMK AO2 SLP275 T00890017
KTTN 171253Z 36004KT 10SM CLR 07/01 A3035 RMK AO2 SLP274 T00670011
KTTN 171153Z 34005KT 10SM CLR 04/00 A3033 RMK AO2 SLP266 T00440000 10061 20028 51018
KTTN 171053Z 34005KT 10SM CLR 03/00 A3032 RMK AO2 SLP262 T00330000
KTTN 170953Z 32004KT 10SM CLR 03/00 A3030 RMK AO2 SLP256 T00330000
KTTN 170853Z AUTO 33003KT 10SM CLR 04/00 A3028 RMK AO2 SLP247 T00390000 53008
KTTN 170753Z AUTO 34005KT 10SM CLR 04/00 A3026 RMK AO2 SLP241 T00390000
KTTN 170653Z AUTO 34005KT 10SM CLR 04/M01 A3026 RMK AO2 SLP241 T00441006
KTTN 170553Z AUTO 00000KT 10SM CLR 06/00 A3025 RMK AO2 SLP239 T00610000 10100 20061 51010
KTTN 170453Z AUTO 34007KT 10SM CLR 07/00 A3024 RMK AO2 SLP236 T00720000 402110072
KTTN 170353Z AUTO 36007KT 10SM CLR 08/01 A3024 RMK AO2 SLP233 T00780006
KTTN 170253Z AUTO 36006KT 10SM CLR 08/02 A3022 RMK AO2 SLP229 T00780017 51026
KTTN 170153Z 36005KT 10SM CLR 08/02 A3020 RMK AO2 SLP222 T00780022
KTTN 170053Z 35004KT 10SM CLR 09/02 A3017 RMK AO2 SLP211 T00890017
KTTN 162353Z 35005KT 10SM CLR 10/01 A3015 RMK AO2 SLP202 T01000006 10150 20100 53022
KTTN 162253Z 34007KT 10SM CLR 12/02 A3012 RMK AO2 SLP195 T01220022
KTTN 162153Z 35007KT 10SM CLR 13/03 A3009 RMK AO2 SLP185 T01330033
KTTN 162053Z 34012G18KT 10SM FEW044 14/03 A3008 RMK AO2 SLP180 T01440033 53017
KTTN 161953Z 34009KT 10SM FEW037 14/05 A3006 RMK AO2 SLP173 T01390050
KTTN 161853Z 35013G23KT 10SM FEW038 13/04 A3005 RMK AO2 SLP169 T01330044
KTTN 161753Z 35014KT 10SM SCT037 13/05 A3003 RMK AO2 SLP162 T01330050 10144 20128 58000
KTTN 161653Z 35014G21KT 10SM SCT037 13/04 A3004 RMK AO2 SLP165 T01280044
KTTN 161553Z 35011KT 10SM SCT035 13/05 A3004 RMK AO2 SLP166 T01280050
KTTN 161453Z 33013G18KT 10SM SCT035 13/06 A3003 RMK AO2 SLP163 T01330061 51024
KTTN 161428Z 36009KT 10SM BKN032 13/07 A3003 RMK AO2 T01330067
KTTN 161419Z 36007G16KT 10SM BKN029 BKN037 13/07 A3002 RMK AO2 T01330072
KTTN 161353Z 35010KT 10SM SCT036 13/08 A3003 RMK AO2 SLP162 T01330078
KTTN 161253Z 34008KT 10SM FEW110 14/08 A2999 RMK AO2 SLP148 T01440083 $
KTTN 161153Z 34009KT 10SM CLR 14/09 A2996 RMK AO2 SLP139 60003 70003 T01440094 10194 20144 53028 $
KTTN 161053Z 34010KT 10SM FEW044 16/14 A2993 RMK AO2 RAE04 SLP130 P0000 T01610139 $
KTTN 160953Z AUTO 30005KT 10SM -RA BKN120 16/15 A2990 RMK AO2 RAB33 SLP118 P0000 T01610150 $
KTTN 160853Z AUTO 29004KT 10SM BKN075 OVC100 16/14 A2988 RMK AO2 RAE53 SLP110 P0001 60003 T01560144 53006 $
KTTN 160753Z AUTO 31007G20KT 8SM -RA BKN060 OVC075 17/14 A2987 RMK AO2 RAB19E29B34 SLP108 P0001 T01670139 $
KTTN 160653Z AUTO 26004KT 10SM FEW031 BKN075 OVC090 18/16 A2985 RMK AO2 RAE29 SLP102 P0001 T01780161 $